createdAt,value
2019-03-06T00:02:25.597Z,-6.00
2019-03-06T00:05:05.558Z,-6.20
2019-03-06T00:07:45.781Z,-6.10
2019-03-06T00:10:25.687Z,-6.10
2019-03-06T00:13:05.635Z,-5.90
2019-03-06T00:15:45.404Z,-6.30
2019-03-06T00:18:25.653Z,-6.00
2019-03-06T00:21:05.505Z,-5.90
2019-03-06T00:23:44.593Z,-5.70
2019-03-06T00:26:24.582Z,-6.00
2019-03-06T00:29:04.729Z,-6.00
2019-03-06T00:31:44.726Z,-5.90
2019-03-06T00:34:24.665Z,-5.80
2019-03-06T00:40:36.726Z,-5.70
2019-03-06T00:43:14.138Z,-5.80
2019-03-06T00:45:53.834Z,-5.70
2019-03-06T00:48:33.038Z,-6.00
2019-03-06T00:51:12.567Z,-5.90
2019-03-06T00:53:52.263Z,-6.00
2019-03-06T00:56:31.476Z,-6.40
2019-03-06T00:59:11.477Z,-6.10
2019-03-06T01:01:51.618Z,-6.20
2019-03-06T01:04:31.581Z,-6.60
2019-03-06T01:07:11.543Z,-6.20
2019-03-06T01:09:51.415Z,-6.40
2019-03-06T01:12:31.696Z,-6.30
2019-03-06T01:15:11.615Z,-6.50
2019-03-06T01:17:51.833Z,-6.10
2019-03-06T01:20:31.541Z,-6.30
2019-03-06T01:23:11.841Z,-6.30
2019-03-06T01:25:51.589Z,-6.30
2019-03-06T01:28:30.966Z,-6.30
2019-03-06T01:31:10.901Z,-6.30
2019-03-06T01:36:46.577Z,-6.40
2019-03-06T01:42:24.713Z,-6.50
2019-03-06T01:45:04.751Z,-6.90
2019-03-06T01:47:44.787Z,-6.80
2019-03-06T01:50:24.913Z,-6.60
2019-03-06T01:53:04.957Z,-6.60
2019-03-06T01:55:45.270Z,-6.50
2019-03-06T01:58:25.070Z,-6.60
2019-03-06T02:01:05.033Z,-6.60
2019-03-06T02:03:44.243Z,-6.60
2019-03-06T02:06:23.403Z,-6.50
2019-03-06T02:09:02.776Z,-6.60
2019-03-06T02:11:42.778Z,-6.70
2019-03-06T02:14:22.765Z,-6.60
2019-03-06T02:17:02.805Z,-6.60
2019-03-06T02:19:41.870Z,-6.80
2019-03-06T02:22:20.957Z,-6.70
2019-03-06T02:25:00.347Z,-6.70
2019-03-06T02:27:40.524Z,-6.90
2019-03-06T02:30:20.463Z,-6.70
2019-03-06T02:33:00.185Z,-6.90
2019-03-06T02:35:40.435Z,-6.90
2019-03-06T02:38:20.118Z,-6.70
2019-03-06T02:41:00.201Z,-7.10
2019-03-06T02:43:40.176Z,-6.80
2019-03-06T02:46:17.701Z,-6.70
2019-03-06T02:49:03.881Z,-6.90
2019-03-06T02:51:43.289Z,-6.90
2019-03-06T02:54:20.610Z,-7.00
2019-03-06T02:57:02.353Z,-6.80
2019-03-06T02:59:43.578Z,-6.70
2019-03-06T03:02:23.039Z,-6.70
2019-03-06T03:05:29.188Z,-6.80
2019-03-06T03:08:08.934Z,-6.80
2019-03-06T03:10:48.602Z,-6.80
2019-03-06T03:13:27.842Z,-6.90
2019-03-06T03:16:05.227Z,-6.80
2019-03-06T03:21:42.959Z,-6.50
2019-03-06T03:24:22.135Z,-7.10
2019-03-06T03:27:01.939Z,-6.90
2019-03-06T03:29:41.135Z,-6.90
2019-03-06T03:32:21.279Z,-7.00
2019-03-06T03:35:01.253Z,-7.10
2019-03-06T03:37:41.418Z,-6.90
2019-03-06T03:40:21.306Z,-7.20
2019-03-06T03:43:00.655Z,-7.00
2019-03-06T03:45:37.933Z,-7.30
2019-03-06T03:48:24.338Z,-7.00
2019-03-06T03:51:03.525Z,-6.90
2019-03-06T03:53:43.755Z,-6.90
2019-03-06T03:56:23.534Z,-6.90
2019-03-06T04:02:15.706Z,-7.00
2019-03-06T04:04:55.585Z,-7.00
2019-03-06T04:07:35.722Z,-6.90
2019-03-06T04:13:13.852Z,-6.90
2019-03-06T04:15:51.317Z,-7.30
2019-03-06T04:18:37.785Z,-6.80
2019-03-06T04:21:16.940Z,-6.80
2019-03-06T04:23:56.843Z,-6.80
2019-03-06T04:26:36.770Z,-6.80
2019-03-06T04:29:03.544Z,-6.90
2019-03-06T04:31:49.733Z,-6.80
2019-03-06T04:34:29.905Z,-6.70
2019-03-06T04:37:09.067Z,-6.90
2019-03-06T04:39:49.250Z,-6.80
2019-03-06T04:42:29.121Z,-6.80
2019-03-06T04:45:08.294Z,-7.20
2019-03-06T04:47:48.181Z,-6.70
2019-03-06T04:50:28.189Z,-6.60
2019-03-06T04:53:07.304Z,-6.50
2019-03-06T04:55:47.289Z,-6.60
2019-03-06T04:58:26.397Z,-6.40
2019-03-06T05:01:06.559Z,-6.50
2019-03-06T05:03:46.559Z,-6.50
2019-03-06T05:06:26.625Z,-6.60
2019-03-06T05:09:06.509Z,-6.10
2019-03-06T05:11:43.877Z,-6.20
2019-03-06T05:14:23.538Z,-6.20
2019-03-06T05:19:45.467Z,-5.90
2019-03-06T05:22:11.709Z,-5.90
2019-03-06T05:24:37.977Z,-5.90
2019-03-06T05:27:24.375Z,-5.70
2019-03-06T05:30:11.473Z,-5.70
2019-03-06T05:32:51.184Z,-5.90
2019-03-06T05:38:29.553Z,-5.70
2019-03-06T05:40:55.957Z,-6.20
2019-03-06T05:43:42.101Z,-5.70
2019-03-06T05:46:28.521Z,-5.90
2019-03-06T05:48:55.190Z,-6.00
2019-03-06T05:51:43.198Z,-5.80
2019-03-06T05:54:22.589Z,-5.90
2019-03-06T05:56:48.925Z,-5.80
2019-03-06T05:59:15.473Z,-5.70
2019-03-06T06:02:01.590Z,-5.40
2019-03-06T06:04:27.836Z,-5.60
2019-03-06T06:07:13.957Z,-5.90
2019-03-06T06:09:53.679Z,-5.50
2019-03-06T06:12:20.046Z,-5.20
2019-03-06T06:14:46.376Z,-5.30
2019-03-06T06:17:32.633Z,-5.20
2019-03-06T06:19:58.922Z,-5.00
2019-03-06T06:23:05.001Z,-5.00
2019-03-06T06:28:13.858Z,-5.20
2019-03-06T06:31:00.177Z,-5.40
2019-03-06T06:39:39.873Z,-4.60
2019-03-06T06:42:20.953Z,-4.60
2019-03-06T06:45:00.792Z,-4.40
2019-03-06T06:47:40.713Z,-4.40
2019-03-06T06:50:39.751Z,-4.30
2019-03-06T06:53:45.759Z,-3.80
2019-03-06T06:56:24.961Z,-3.60
2019-03-06T06:59:13.070Z,-3.80
2019-03-06T07:08:21.034Z,-4.10
2019-03-06T07:11:20.005Z,-3.90
2019-03-06T07:14:01.942Z,-4.00
2019-03-06T07:16:43.016Z,-4.00
2019-03-06T07:19:25.129Z,-3.90
2019-03-06T07:22:07.047Z,-3.80
2019-03-06T07:25:06.263Z,-3.80
2019-03-06T07:27:47.390Z,-3.80
2019-03-06T07:33:36.564Z,-3.80
2019-03-06T07:36:37.761Z,-4.10
2019-03-06T07:39:19.635Z,-4.30
2019-03-06T07:42:19.518Z,-3.70
2019-03-06T07:51:34.183Z,-3.50
2019-03-06T07:57:17.930Z,-3.50
2019-03-06T07:59:57.107Z,-3.60
2019-03-06T08:03:03.355Z,-3.50
2019-03-06T08:05:29.607Z,-3.20
2019-03-06T08:08:16.021Z,-3.10
2019-03-06T08:10:56.976Z,-3.50
2019-03-06T08:13:38.721Z,-3.20
2019-03-06T08:16:23.510Z,-3.10
2019-03-06T08:22:15.793Z,-3.00
2019-03-06T08:25:02.109Z,-2.90
2019-03-06T08:27:48.422Z,-2.80
2019-03-06T08:36:38.784Z,-2.60
2019-03-06T08:39:18.759Z,-2.50
2019-03-06T08:41:58.862Z,-2.70
2019-03-06T08:44:38.670Z,-2.50
2019-03-06T08:47:17.957Z,-2.50
2019-03-06T08:50:17.611Z,-2.50
2019-03-06T08:53:16.659Z,-2.70
2019-03-06T08:56:15.892Z,-2.50
2019-03-06T08:58:57.001Z,-2.40
2019-03-06T09:02:00.654Z,-2.40
2019-03-06T09:04:42.190Z,-2.50
2019-03-06T09:07:29.005Z,-2.30
2019-03-06T09:10:28.715Z,-2.30
2019-03-06T09:13:09.759Z,-2.40
2019-03-06T09:16:08.917Z,-2.10
2019-03-06T09:18:52.852Z,-2.20
2019-03-06T09:21:51.967Z,-2.30
2019-03-06T09:24:33.725Z,-2.00
2019-03-06T09:30:28.426Z,-1.80
2019-03-06T09:33:09.529Z,-1.90
2019-03-06T09:39:03.652Z,-1.80
2019-03-06T09:41:45.117Z,-1.80
2019-03-06T09:44:29.472Z,-1.70
2019-03-06T09:47:29.172Z,-1.60
2019-03-06T09:50:11.347Z,-1.60
2019-03-06T09:53:10.602Z,-1.40
2019-03-06T09:56:10.427Z,-1.50
2019-03-06T09:58:54.377Z,-1.30
2019-03-06T10:01:38.681Z,-1.70
2019-03-06T10:04:20.582Z,-1.30
2019-03-06T10:07:01.854Z,-1.50
2019-03-06T10:09:46.697Z,-1.30
2019-03-06T10:18:37.520Z,-1.20
2019-03-06T10:21:16.957Z,-1.20
2019-03-06T10:23:56.904Z,-1.20
2019-03-06T10:26:36.721Z,-1.70
2019-03-06T10:29:14.018Z,-1.20
2019-03-06T10:31:53.649Z,-1.10
2019-03-06T10:34:36.415Z,-1.10
2019-03-06T10:37:15.807Z,-1.20
2019-03-06T10:39:55.620Z,-1.00
2019-03-06T10:42:33.119Z,-1.00
2019-03-06T10:45:12.680Z,-1.10
2019-03-06T10:47:52.719Z,-0.90
2019-03-06T10:50:32.696Z,-1.10
2019-03-06T10:53:12.700Z,-0.80
2019-03-06T10:55:52.690Z,-0.90
2019-03-06T10:58:29.997Z,-1.00
2019-03-06T11:01:10.044Z,-0.70
2019-03-06T11:03:51.419Z,-0.70
2019-03-06T11:06:31.398Z,-0.60
2019-03-06T11:09:11.308Z,-0.50
2019-03-06T11:11:51.495Z,-0.50
2019-03-06T11:14:31.659Z,-0.50
2019-03-06T11:17:12.021Z,-0.50
2019-03-06T11:19:51.789Z,-0.50
2019-03-06T11:22:30.974Z,-0.40
2019-03-06T11:25:10.177Z,-0.40
2019-03-06T11:27:50.461Z,-0.40
2019-03-06T11:30:30.725Z,-0.30
2019-03-06T11:33:10.817Z,-0.40
2019-03-06T11:35:50.725Z,-0.30
2019-03-06T11:38:30.035Z,-0.10
2019-03-06T11:41:10.026Z,-0.20
2019-03-06T11:43:49.210Z,0.10
2019-03-06T11:46:29.167Z,0.00
2019-03-06T11:52:22.530Z,0.10
2019-03-06T11:55:06.139Z,0.10
2019-03-06T11:57:43.493Z,0.10
2019-03-06T12:00:43.334Z,0.20
2019-03-06T12:03:23.180Z,0.10
2019-03-06T12:06:02.765Z,0.20
2019-03-06T12:08:45.829Z,0.30
2019-03-06T12:11:23.719Z,0.30
2019-03-06T12:17:01.870Z,0.30
2019-03-06T12:19:41.026Z,0.30
2019-03-06T12:22:18.305Z,0.30
2019-03-06T12:24:58.194Z,0.50
2019-03-06T12:27:38.155Z,0.50
2019-03-06T12:30:18.217Z,0.50
2019-03-06T12:36:10.341Z,0.60
2019-03-06T12:38:50.043Z,0.50
2019-03-06T12:41:30.105Z,0.50
2019-03-06T12:44:10.762Z,0.50
2019-03-06T12:46:50.314Z,0.40
2019-03-06T12:49:30.070Z,0.60
2019-03-06T12:52:10.038Z,0.50
2019-03-06T12:54:49.238Z,0.70
2019-03-06T12:57:29.449Z,0.60
2019-03-06T13:00:10.052Z,0.90
2019-03-06T13:02:50.521Z,0.60
2019-03-06T13:05:30.119Z,0.70
2019-03-06T13:08:19.227Z,0.80
2019-03-06T13:10:51.181Z,0.80
2019-03-06T13:13:35.538Z,1.00
2019-03-06T13:16:13.075Z,1.00
2019-03-06T13:18:52.402Z,0.80
2019-03-06T13:21:34.118Z,1.10
2019-03-06T13:24:14.180Z,1.10
2019-03-06T13:26:53.505Z,1.10
2019-03-06T13:29:31.012Z,1.20
2019-03-06T13:31:57.574Z,1.10
2019-03-06T13:34:50.788Z,1.30
2019-03-06T13:37:12.245Z,1.30
2019-03-06T13:39:58.470Z,1.20
2019-03-06T13:42:38.449Z,1.10
2019-03-06T13:45:17.743Z,1.00
2019-03-06T13:47:57.639Z,1.10
2019-03-06T13:50:35.157Z,1.10
2019-03-06T13:53:20.224Z,1.10
2019-03-06T13:55:55.768Z,0.80
2019-03-06T13:58:35.576Z,1.00
2019-03-06T14:01:15.340Z,1.10
2019-03-06T14:03:55.282Z,1.10
2019-03-06T14:06:35.377Z,1.30
2019-03-06T14:09:15.353Z,0.80
2019-03-06T14:14:54.142Z,1.30
2019-03-06T14:17:40.337Z,1.30
2019-03-06T14:20:20.982Z,1.20
2019-03-06T14:23:01.752Z,1.20
2019-03-06T14:25:41.719Z,1.20
2019-03-06T14:28:21.625Z,1.10
2019-03-06T14:30:48.486Z,1.10
2019-03-06T14:33:34.693Z,1.30
2019-03-06T14:36:15.331Z,1.40
2019-03-06T14:38:54.885Z,1.40
2019-03-06T14:41:34.836Z,1.40
2019-03-06T14:44:12.224Z,1.40
2019-03-06T14:46:52.093Z,1.40
2019-03-06T14:49:31.923Z,1.20
2019-03-06T14:52:09.425Z,1.30
2019-03-06T14:54:55.634Z,1.50
2019-03-06T14:57:35.015Z,1.20
2019-03-06T15:00:14.227Z,1.20
2019-03-06T15:02:54.164Z,1.50
2019-03-06T15:05:34.199Z,1.50
2019-03-06T15:08:14.449Z,1.20
2019-03-06T15:10:54.281Z,1.30
2019-03-06T15:13:34.297Z,1.30
2019-03-06T15:16:14.325Z,1.00
2019-03-06T15:18:54.487Z,1.20
2019-03-06T15:21:35.186Z,1.20
2019-03-06T15:24:15.443Z,1.20
2019-03-06T15:26:55.327Z,1.20
2019-03-06T15:29:34.653Z,1.30
2019-03-06T15:35:27.121Z,1.60
2019-03-06T15:38:06.687Z,1.40
2019-03-06T15:40:45.945Z,1.40
2019-03-06T15:43:26.066Z,1.30
2019-03-06T15:46:06.085Z,1.30
2019-03-06T15:48:45.893Z,1.30
2019-03-06T15:51:25.671Z,1.20
2019-03-06T15:54:02.830Z,1.40
2019-03-06T15:56:42.565Z,1.40
2019-03-06T15:59:22.702Z,1.40
2019-03-06T16:02:02.847Z,1.40
2019-03-06T16:04:42.751Z,1.60
2019-03-06T16:07:22.983Z,1.50
2019-03-06T16:10:02.806Z,1.50
2019-03-06T16:12:42.772Z,1.40
2019-03-06T16:15:22.677Z,1.40
2019-03-06T16:18:02.006Z,1.30
2019-03-06T16:20:42.134Z,1.30
2019-03-06T16:23:21.466Z,0.90
2019-03-06T16:26:01.355Z,1.40
2019-03-06T16:28:42.341Z,1.40
2019-03-06T16:31:21.438Z,1.40
2019-03-06T16:34:00.622Z,1.40
2019-03-06T16:36:39.751Z,1.50
2019-03-06T16:39:27.880Z,1.40
2019-03-06T16:42:14.289Z,1.40
2019-03-06T16:44:53.657Z,1.40
2019-03-06T16:47:33.555Z,1.50
2019-03-06T16:50:16.164Z,1.40
2019-03-06T16:53:00.019Z,1.40
2019-03-06T16:55:37.255Z,1.60
2019-03-06T16:58:16.962Z,1.60
2019-03-06T17:06:53.439Z,1.80
2019-03-06T17:09:33.303Z,1.80
2019-03-06T17:12:13.323Z,1.60
2019-03-06T17:14:53.293Z,1.70
2019-03-06T17:17:33.173Z,1.60
2019-03-06T17:20:13.138Z,1.70
2019-03-06T17:22:55.243Z,1.90
2019-03-06T17:25:34.334Z,1.90
2019-03-06T17:28:14.670Z,1.60
2019-03-06T17:30:56.491Z,1.70
2019-03-06T17:33:33.709Z,1.90
2019-03-06T17:36:19.913Z,1.70
2019-03-06T17:38:59.710Z,1.80
2019-03-06T17:41:39.267Z,1.70
2019-03-06T17:44:19.315Z,1.70
2019-03-06T17:46:59.279Z,1.30
2019-03-06T17:49:38.457Z,1.80
2019-03-06T17:52:18.304Z,1.60
2019-03-06T17:54:58.154Z,1.70
2019-03-06T17:57:39.109Z,1.50
2019-03-06T18:00:21.258Z,1.70
2019-03-06T18:03:01.265Z,1.70
2019-03-06T18:05:41.245Z,1.60
2019-03-06T18:08:20.922Z,1.70
2019-03-06T18:11:00.993Z,1.90
2019-03-06T18:13:40.739Z,1.80
2019-03-06T18:16:21.787Z,1.60
2019-03-06T18:19:02.134Z,1.60
2019-03-06T18:21:42.265Z,1.70
2019-03-06T18:24:22.093Z,1.60
2019-03-06T18:27:02.327Z,1.70
2019-03-06T18:29:42.475Z,1.50
2019-03-06T18:32:23.732Z,1.30
2019-03-06T18:34:50.489Z,1.90
2019-03-06T18:37:37.093Z,1.70
2019-03-06T18:40:24.193Z,1.70
2019-03-06T18:43:03.671Z,1.80
2019-03-06T18:45:43.545Z,1.80
2019-03-06T18:48:22.783Z,1.80
2019-03-06T18:51:02.674Z,1.70
2019-03-06T18:53:41.908Z,1.70
2019-03-06T18:56:08.359Z,1.70
2019-03-06T18:58:54.720Z,1.80
2019-03-06T19:01:41.105Z,1.80
2019-03-06T19:04:20.793Z,1.90
2019-03-06T19:06:58.075Z,2.00
2019-03-06T19:09:38.234Z,2.00
2019-03-06T19:12:18.158Z,2.00
2019-03-06T19:14:57.926Z,1.90
2019-03-06T19:17:37.760Z,1.90
2019-03-06T19:20:17.040Z,1.90
2019-03-06T19:22:57.121Z,1.70
2019-03-06T19:25:37.177Z,1.80
2019-03-06T19:28:16.950Z,1.80
2019-03-06T19:30:54.449Z,1.80
2019-03-06T19:33:40.645Z,1.80
2019-03-06T19:36:20.097Z,1.90
2019-03-06T19:39:00.091Z,1.80
2019-03-06T19:41:40.306Z,1.70
2019-03-06T19:44:19.925Z,1.40
2019-03-06T19:47:00.101Z,1.70
2019-03-06T19:49:39.720Z,1.70
2019-03-06T19:52:19.821Z,1.80
2019-03-06T19:54:59.863Z,1.90
2019-03-06T19:57:39.880Z,1.70
2019-03-06T20:00:19.750Z,1.80
2019-03-06T20:02:59.916Z,1.80
2019-03-06T20:05:39.702Z,1.80
2019-03-06T20:14:15.806Z,1.90
2019-03-06T20:20:09.466Z,1.90
2019-03-06T20:22:49.193Z,1.70
2019-03-06T20:25:29.435Z,1.60
2019-03-06T20:28:09.310Z,1.70
2019-03-06T20:30:49.404Z,1.70
2019-03-06T20:33:29.538Z,1.70
2019-03-06T20:36:11.528Z,1.50
2019-03-06T20:38:50.516Z,1.60
2019-03-06T20:41:30.502Z,1.60
2019-03-06T20:44:10.422Z,1.70
2019-03-06T20:46:50.589Z,2.00
2019-03-06T20:49:30.481Z,1.80
2019-03-06T20:52:09.863Z,1.80
2019-03-06T20:54:49.730Z,1.90
2019-03-06T20:57:29.747Z,2.00
2019-03-06T21:00:09.737Z,1.90
2019-03-06T21:02:49.023Z,1.90
2019-03-06T21:05:29.055Z,1.90
2019-03-06T21:08:08.916Z,1.50
2019-03-06T21:10:48.932Z,1.90
2019-03-06T21:13:26.381Z,1.70
2019-03-06T21:16:12.661Z,2.10
2019-03-06T21:18:52.110Z,2.10
2019-03-06T21:21:32.044Z,2.20
2019-03-06T21:24:12.099Z,1.90
2019-03-06T21:26:52.357Z,2.20
2019-03-06T21:29:32.349Z,1.80
2019-03-06T21:32:12.225Z,2.20
2019-03-06T21:34:54.254Z,2.30
2019-03-06T21:37:34.325Z,2.10
2019-03-06T21:40:14.174Z,1.90
2019-03-06T21:42:54.152Z,2.30
2019-03-06T21:45:34.056Z,2.30
2019-03-06T21:48:13.171Z,2.40
2019-03-06T21:50:52.470Z,2.30
2019-03-06T21:53:32.260Z,2.30
2019-03-06T21:56:11.642Z,2.20
2019-03-06T21:58:51.245Z,2.40
2019-03-06T22:01:31.323Z,2.40
2019-03-06T22:04:11.384Z,2.40
2019-03-06T22:06:51.541Z,2.30
2019-03-06T22:09:31.467Z,2.40
2019-03-06T22:12:11.718Z,2.40
2019-03-06T22:14:51.638Z,2.40
2019-03-06T22:17:31.598Z,2.30
2019-03-06T22:20:11.199Z,2.40
2019-03-06T22:22:48.848Z,2.50
2019-03-06T22:25:35.139Z,2.50
2019-03-06T22:28:12.521Z,2.50
2019-03-06T22:30:58.726Z,2.60
2019-03-06T22:33:38.214Z,2.50
2019-03-06T22:36:17.846Z,2.10
2019-03-06T22:38:57.721Z,2.60
2019-03-06T22:41:37.798Z,2.50
2019-03-06T22:44:17.881Z,2.40
2019-03-06T22:46:57.697Z,2.70
2019-03-06T22:49:38.107Z,2.50
2019-03-06T22:52:17.781Z,2.50
2019-03-06T22:54:57.176Z,2.60
2019-03-06T22:57:36.991Z,2.60
2019-03-06T23:00:17.191Z,2.60
2019-03-06T23:02:57.048Z,2.50
2019-03-06T23:05:36.938Z,2.30
2019-03-06T23:08:16.778Z,2.20
2019-03-06T23:10:56.962Z,2.50
2019-03-06T23:13:36.881Z,2.50
2019-03-06T23:16:16.829Z,2.40
2019-03-06T23:18:57.004Z,2.40
2019-03-06T23:21:37.057Z,2.40
2019-03-06T23:24:14.296Z,2.40
2019-03-06T23:26:53.990Z,2.40
2019-03-06T23:29:34.093Z,2.00
2019-03-06T23:32:14.200Z,2.50
2019-03-06T23:34:54.065Z,2.20
2019-03-06T23:37:34.726Z,2.50
2019-03-06T23:40:14.313Z,2.00
2019-03-06T23:48:50.670Z,2.50
2019-03-06T23:51:30.967Z,2.50
2019-03-06T23:54:10.307Z,2.00
2019-03-06T23:56:50.329Z,2.40
2019-03-06T23:59:30.453Z,2.30
